createdAt,value
2022-08-11T00:02:05.617Z,61.47
2022-08-11T00:07:19.650Z,61.00
2022-08-11T00:12:23.406Z,61.04
2022-08-11T00:17:32.063Z,61.45
2022-08-11T00:22:38.189Z,61.31
2022-08-11T00:27:42.473Z,61.12
2022-08-11T00:32:54.922Z,61.52
2022-08-11T00:38:00.037Z,62.43
2022-08-11T00:43:35.121Z,62.46
2022-08-11T00:49:12.534Z,61.47
2022-08-11T00:54:39.043Z,62.16
2022-08-11T01:00:06.493Z,61.53
2022-08-11T01:05:46.670Z,60.61
2022-08-11T01:11:08.222Z,60.82
2022-08-11T01:16:30.289Z,61.10
2022-08-11T01:21:51.523Z,61.65
2022-08-11T01:27:03.035Z,60.70
2022-08-11T01:32:23.968Z,61.22
2022-08-11T01:37:45.543Z,61.86
2022-08-11T01:43:15.977Z,61.29
2022-08-11T01:48:42.456Z,62.51
2022-08-11T01:53:47.789Z,61.60
2022-08-11T01:59:21.233Z,61.32
2022-08-11T02:04:46.955Z,61.25
2022-08-11T02:10:40.316Z,62.22
2022-08-11T02:15:50.308Z,61.68
2022-08-11T02:21:15.924Z,61.08
2022-08-11T02:26:24.482Z,57.71
2022-08-11T02:32:24.669Z,60.13
2022-08-11T02:37:33.369Z,71.13
2022-08-11T02:42:45.419Z,68.63
2022-08-11T02:48:17.907Z,63.97
2022-08-11T02:53:37.786Z,63.41
2022-08-11T02:59:42.108Z,62.82
2022-08-11T03:05:14.002Z,61.22
2022-08-11T03:10:32.644Z,58.77
2022-08-11T03:16:38.105Z,55.68
2022-08-11T03:22:01.522Z,57.39
2022-08-11T03:27:27.890Z,65.13
2022-08-11T03:33:17.403Z,67.63
2022-08-11T03:38:30.663Z,65.36
2022-08-11T03:43:50.136Z,63.00
2022-08-11T03:49:21.754Z,61.61
2022-08-11T03:55:13.963Z,60.59
2022-08-11T04:00:42.095Z,60.63
2022-08-11T04:06:03.330Z,56.36
2022-08-11T04:11:24.306Z,57.02
2022-08-11T04:16:36.140Z,64.77
2022-08-11T04:22:07.364Z,65.60
2022-08-11T04:27:37.399Z,62.29
2022-08-11T04:33:18.385Z,59.94
2022-08-11T04:38:33.499Z,55.77
2022-08-11T04:44:11.879Z,56.60
2022-08-11T04:49:36.336Z,60.78
2022-08-11T04:55:03.967Z,64.95
2022-08-11T05:00:29.088Z,66.18
2022-08-11T05:05:57.251Z,62.06
2022-08-11T05:11:09.302Z,56.24
2022-08-11T05:16:34.730Z,57.64
2022-08-11T05:22:00.086Z,63.33
2022-08-11T05:27:26.505Z,60.36
2022-08-11T05:33:02.603Z,58.21
2022-08-11T05:38:31.941Z,62.80
2022-08-11T05:44:20.034Z,62.44
2022-08-11T05:49:42.259Z,58.31
2022-08-11T05:55:06.949Z,60.51
2022-08-11T06:00:11.894Z,61.31
2022-08-11T06:05:16.328Z,61.00
2022-08-11T06:10:51.792Z,60.58
2022-08-11T06:15:56.132Z,60.60
2022-08-11T06:21:00.674Z,58.10
2022-08-11T06:26:09.933Z,56.45
2022-08-11T06:31:15.453Z,54.26
2022-08-11T06:36:43.303Z,52.55
2022-08-11T06:42:06.683Z,52.05
2022-08-11T06:47:12.615Z,49.55
2022-08-11T06:52:34.943Z,46.77
2022-08-11T06:58:00.178Z,44.23
2022-08-11T07:03:13.025Z,44.59
2022-08-11T07:09:23.384Z,42.92
2022-08-11T07:14:48.657Z,39.60
2022-08-11T07:20:17.104Z,38.17
2022-08-11T07:25:41.335Z,36.82
2022-08-11T07:30:45.010Z,35.97
2022-08-11T07:35:51.116Z,33.24
2022-08-11T07:40:54.041Z,33.08
2022-08-11T07:46:15.890Z,32.59
2022-08-11T07:51:39.919Z,31.76
2022-08-11T07:56:55.037Z,30.17
2022-08-11T08:02:19.309Z,28.82
2022-08-11T08:07:42.243Z,28.62
2022-08-11T08:13:04.177Z,28.23
2022-08-11T08:18:25.569Z,27.48
2022-08-11T08:23:33.769Z,26.50
2022-08-11T08:28:37.174Z,24.90
2022-08-11T08:33:42.332Z,24.73
2022-08-11T08:38:51.235Z,23.95
2022-08-11T08:44:20.982Z,22.58
2022-08-11T08:49:29.532Z,22.92
2022-08-11T08:54:43.281Z,22.21
2022-08-11T08:59:51.359Z,21.49
2022-08-11T09:04:54.931Z,21.02
2022-08-11T09:09:59.834Z,20.79
2022-08-11T09:15:05.936Z,20.92
2022-08-11T09:20:24.946Z,19.82
2022-08-11T09:25:49.321Z,19.79
2022-08-11T09:30:53.800Z,18.20
2022-08-11T09:35:57.955Z,17.88
2022-08-11T09:41:05.641Z,18.73
2022-08-11T09:46:10.036Z,18.96
2022-08-11T09:51:14.643Z,19.02
2022-08-11T09:56:39.080Z,18.69
2022-08-11T10:01:49.282Z,18.29
2022-08-11T10:07:01.883Z,18.54
2022-08-11T10:12:13.023Z,19.66
2022-08-11T10:17:18.862Z,20.99
2022-08-11T10:22:40.584Z,20.77
2022-08-11T10:28:17.767Z,20.41
2022-08-11T10:33:36.855Z,19.58
2022-08-11T10:38:40.353Z,18.48
2022-08-11T10:44:01.668Z,18.41
2022-08-11T10:49:06.650Z,19.49
2022-08-11T10:54:28.869Z,20.50
2022-08-11T10:59:34.525Z,19.76
2022-08-11T11:04:54.234Z,19.43
2022-08-11T11:10:02.008Z,18.55
2022-08-11T11:15:25.550Z,17.31
2022-08-11T11:20:41.617Z,16.75
2022-08-11T11:26:27.126Z,17.27
2022-08-11T11:31:36.591Z,18.40
2022-08-11T11:36:47.840Z,19.92
2022-08-11T11:41:53.482Z,20.54
2022-08-11T11:46:57.631Z,18.98
2022-08-11T11:52:01.085Z,17.25
2022-08-11T11:57:24.847Z,17.40
2022-08-11T12:02:28.366Z,16.08
2022-08-11T12:07:56.973Z,15.24
2022-08-11T12:13:36.087Z,15.03
2022-08-11T12:18:41.225Z,14.95
2022-08-11T12:24:06.527Z,14.57
2022-08-11T12:29:11.611Z,14.16
2022-08-11T12:34:16.172Z,14.02
2022-08-11T12:40:16.047Z,13.95
2022-08-11T12:45:28.234Z,13.77
2022-08-11T12:50:50.485Z,13.44
2022-08-11T12:56:19.782Z,13.34
2022-08-11T13:01:41.419Z,13.66
2022-08-11T13:06:44.840Z,13.58
2022-08-11T13:12:07.038Z,14.03
2022-08-11T13:17:43.572Z,13.88
2022-08-11T13:22:50.383Z,13.57
2022-08-11T13:27:57.187Z,13.22
2022-08-11T13:33:07.804Z,13.41
2022-08-11T13:38:18.927Z,13.44
2022-08-11T13:43:25.915Z,13.48
2022-08-11T13:48:28.877Z,13.54
2022-08-11T13:53:32.802Z,13.54
2022-08-11T13:58:40.087Z,13.29
2022-08-11T14:04:31.054Z,13.20
2022-08-11T14:09:10.836Z,13.17
2022-08-11T14:14:21.297Z,12.88
2022-08-11T14:19:26.167Z,12.53
2022-08-11T14:24:29.864Z,12.38
2022-08-11T14:29:44.812Z,12.54
2022-08-11T14:34:52.886Z,12.79
2022-08-11T14:40:03.822Z,12.82
2022-08-11T14:45:57.503Z,12.66
2022-08-11T14:51:02.118Z,12.61
2022-08-11T14:56:24.853Z,12.92
2022-08-11T15:01:46.425Z,13.08
2022-08-11T15:06:50.435Z,13.31
2022-08-11T15:12:31.511Z,13.31
2022-08-11T15:17:43.008Z,13.38
2022-08-11T15:23:04.659Z,13.42
2022-08-11T15:28:29.040Z,13.80
2022-08-11T15:33:51.647Z,15.23
2022-08-11T15:39:20.552Z,17.17
2022-08-11T15:45:03.568Z,18.59
2022-08-11T15:50:13.944Z,20.08
2022-08-11T15:55:19.145Z,21.25
2022-08-11T16:00:41.789Z,22.42
2022-08-11T16:05:53.267Z,23.21
2022-08-11T16:10:57.455Z,24.16
2022-08-11T16:16:14.964Z,25.17
2022-08-11T16:21:35.107Z,25.47
2022-08-11T16:27:11.606Z,25.82
2022-08-11T16:32:19.125Z,26.38
2022-08-11T16:37:42.255Z,26.87
2022-08-11T16:43:10.853Z,27.73
2022-08-11T16:48:35.422Z,27.79
2022-08-11T16:54:00.131Z,28.16
2022-08-11T16:59:18.237Z,28.39
2022-08-11T17:04:46.259Z,28.70
2022-08-11T17:10:39.281Z,28.99
2022-08-11T17:15:51.002Z,29.10
2022-08-11T17:20:55.621Z,29.70
2022-08-11T17:26:03.250Z,30.47
2022-08-11T17:31:26.332Z,30.80
2022-08-11T17:36:29.433Z,30.88
2022-08-11T17:41:50.919Z,31.45
2022-08-11T17:47:13.142Z,32.03
2022-08-11T17:52:35.662Z,33.56
2022-08-11T17:57:58.874Z,35.07
2022-08-11T18:03:21.592Z,35.74
2022-08-11T18:08:44.488Z,36.33
2022-08-11T18:14:08.339Z,37.44
2022-08-11T18:19:30.749Z,38.04
2022-08-11T18:24:58.566Z,39.35
2022-08-11T18:30:22.919Z,39.63
2022-08-11T18:35:47.332Z,40.75
2022-08-11T18:41:10.816Z,41.44
2022-08-11T18:46:36.977Z,41.97
2022-08-11T18:52:00.379Z,42.30
2022-08-11T18:57:24.967Z,42.87
2022-08-11T19:02:49.561Z,43.67
2022-08-11T19:08:14.343Z,44.16
2022-08-11T19:13:40.387Z,45.81
2022-08-11T19:19:07.750Z,45.75
2022-08-11T19:24:30.397Z,46.81
2022-08-11T19:30:11.973Z,46.08
2022-08-11T19:35:36.496Z,46.67
2022-08-11T19:40:59.802Z,47.43
2022-08-11T19:46:24.613Z,47.90
2022-08-11T19:51:53.458Z,48.57
2022-08-11T19:57:15.905Z,49.15
2022-08-11T20:02:38.523Z,49.75
2022-08-11T20:08:01.634Z,50.28
2022-08-11T20:13:26.575Z,50.86
2022-08-11T20:18:48.829Z,50.90
2022-08-11T20:24:10.104Z,52.33
2022-08-11T20:29:31.763Z,52.48
2022-08-11T20:34:55.219Z,53.83
2022-08-11T20:40:23.813Z,53.79
2022-08-11T20:45:55.171Z,53.37
2022-08-11T20:51:19.875Z,53.03
2022-08-11T20:56:47.580Z,53.37
2022-08-11T21:02:11.083Z,54.09
2022-08-11T21:07:35.894Z,55.30
2022-08-11T21:13:24.119Z,55.90
2022-08-11T21:18:48.048Z,56.12
2022-08-11T21:24:11.556Z,57.92
2022-08-11T21:29:34.187Z,58.01
2022-08-11T21:34:56.704Z,59.93
2022-08-11T21:40:20.897Z,59.23
2022-08-11T21:45:44.387Z,58.49
2022-08-11T21:51:06.236Z,57.82
2022-08-11T21:56:29.909Z,59.07
2022-08-11T22:01:52.160Z,58.59
2022-08-11T22:07:15.174Z,58.32
2022-08-11T22:12:41.009Z,68.47
2022-08-11T22:18:05.723Z,69.12
2022-08-11T22:23:35.814Z,65.56
2022-08-11T22:28:58.174Z,62.70
2022-08-11T22:34:20.806Z,61.02
2022-08-11T22:39:44.509Z,57.32
2022-08-11T22:45:06.183Z,58.36
2022-08-11T22:50:29.059Z,57.17
2022-08-11T22:55:51.211Z,60.57
2022-08-11T23:01:14.347Z,68.06
2022-08-11T23:06:37.982Z,66.36
2022-08-11T23:12:07.750Z,63.21
2022-08-11T23:17:32.739Z,60.92
2022-08-11T23:22:57.200Z,56.58
2022-08-11T23:28:21.491Z,53.99
2022-08-11T23:33:43.571Z,55.11
2022-08-11T23:39:05.280Z,57.73
2022-08-11T23:44:27.687Z,66.55
2022-08-11T23:49:49.540Z,67.31
2022-08-11T23:55:11.542Z,64.12
